Latest Areodrome Forecast (TAF)

TAF VMMC 192302Z 2000/2106 15012KT 8000 FEW008 SCT020 TEMPO 2000/2008 09008KT 3500 SHRA FEW005CB SCT015 TEMPO 2100/2104 4000 SHRA=

Decoded TAF in plain language
Contents of Report Code Information
Report Type TAF Aerodrome Forecasts
Location VMMC Macao, China
Issuing Time 192302Z 19/04/2019 23:02 UTC
Period of Validity of Forecast 2000/2106 Between 20th 00:00 UTC and 21st 06:00 UTC
Surface Wind Direction and Speed 15012KT mean direction 150 degrees, speed 12 knots
Visibility 8000 8 kilometres
Weather    
Cloud FEW008 SCT020 amount 1-2 oktas, base 800 feet;
amount 3-4 oktas, base 2000 feet
Expected Significant ChangesTEMPO 2000/2008 09008KT 3500 SHRA FEW005CB SCT015temporarily between 20th 00:00 UTC and 20th 08:00 UTC
wind: mean direction 090 degrees, speed 8 knots
visibility: 3500 metres
weather: rain shower
cloud: amount 1-2 oktas cumulonimbus, base 500 feet; amount 3-4 oktas, base 1500 feet
 TEMPO 2100/2104 4000 SHRAtemporarily between 21st 00:00 UTC and 21st 04:00 UTC
visibility: 4000 metres
weather: rain shower

OTHER INTERNATIONAL AIRPORTS:
Weather Forecast (TAF)   Weather Report (METAR)